Time;durP1;ratioP1;P1;durP2;ratioP2;P2;SDS_P1;SDS_P2;PMS_P1;PMS_P2;Temp;Humidity;BMP_temperature;BMP_pressure;BME280_temperature;BME280_humidity;BME280_pressure;Samples;Min_cycle;Max_cycle;Signal;HPM_P1;HPM_P2
2021/12/18 00:01:22;;;;;;;7.50;3.60;;;;;;;18.90;51.08;102335.00;5109489;28;20594;-59
2021/12/18 00:06:22;;;;;;;8.50;4.30;;;;;;;18.88;51.12;102331.63;4096366;22;20549;-73
2021/12/18 00:08:48;;;;;;;10.23;4.53;;;;;;;18.86;51.41;102331.09;5037523;28;20431;-74
2021/12/18 00:11:13;;;;;;;8.43;3.60;;;;;;;18.86;51.58;102333.16;5029108;28;20180;-73
2021/12/18 00:13:42;;;;;;;8.77;3.47;;;;;;;18.87;51.30;102329.09;5036782;28;20288;-73
2021/12/18 00:16:08;;;;;;;8.83;3.73;;;;;;;18.86;51.53;102322.53;5030774;28;20172;-73
2021/12/18 00:18:34;;;;;;;11.17;4.37;;;;;;;18.88;51.38;102317.34;5045756;28;20809;-74
2021/12/18 00:21:00;;;;;;;12.20;4.10;;;;;;;18.87;51.59;102323.38;5013121;28;20180;-73
2021/12/18 00:23:26;;;;;;;8.87;3.80;;;;;;;18.87;51.51;102327.06;5019303;28;20477;-73
2021/12/18 00:25:51;;;;;;;8.20;3.80;;;;;;;18.87;51.64;102321.34;5009976;28;20187;-74
2021/12/18 00:28:23;;;;;;;11.00;4.40;;;;;;;18.85;51.36;102325.72;5025762;28;20184;-74
2021/12/18 00:30:49;;;;;;;7.80;3.90;;;;;;;18.86;51.28;102327.44;5026506;28;20608;-74
2021/12/18 00:33:14;;;;;;;13.20;4.50;;;;;;;18.80;51.37;102318.16;4994527;28;20438;-73
2021/12/18 00:35:40;;;;;;;13.73;3.97;;;;;;;18.84;51.40;102327.75;5029494;28;20177;-73
2021/12/18 00:38:06;;;;;;;11.30;3.50;;;;;;;18.82;51.61;102315.78;5026160;28;20185;-73
2021/12/18 00:40:44;;;;;;;7.50;3.40;;;;;;;18.84;51.55;102310.59;5025724;28;20192;-73
2021/12/18 00:43:23;;;;;;;9.37;3.20;;;;;;;18.84;51.59;102313.44;5034012;28;20486;-73
2021/12/18 00:45:49;;;;;;;7.70;4.27;;;;;;;18.80;51.69;102321.00;5013792;28;20429;-74
2021/12/18 00:48:15;;;;;;;9.03;3.80;;;;;;;18.82;51.36;102321.50;5009718;28;20428;-73
2021/12/18 00:50:41;;;;;;;8.07;4.10;;;;;;;18.83;51.51;102325.22;5019184;28;20992;-73
2021/12/18 00:53:06;;;;;;;10.50;4.07;;;;;;;18.82;51.48;102321.50;5014032;28;20214;-73
2021/12/18 00:55:33;;;;;;;9.43;3.17;;;;;;;18.79;51.56;102319.31;5009623;28;20180;-73
2021/12/18 00:57:59;;;;;;;7.80;3.53;;;;;;;18.80;51.51;102312.41;5036648;28;20180;-74
2021/12/18 01:00:25;;;;;;;7.60;3.60;;;;;;;18.80;51.66;102323.88;5026824;28;20449;-73
2021/12/18 01:02:52;;;;;;;9.10;4.30;;;;;;;18.74;51.91;102325.22;5029832;28;20549;-73
2021/12/18 01:05:18;;;;;;;7.57;3.43;;;;;;;18.75;51.73;102329.75;5028064;28;20306;-74
2021/12/18 01:07:43;;;;;;;10.23;3.80;;;;;;;18.73;51.74;102323.53;5031959;28;20430;-75
2021/12/18 01:12:49;;;;;;;12.57;3.67;;;;;;;18.74;52.03;102324.34;5045480;28;20191;-75
2021/12/18 01:23:37;;;;;;;7.00;3.70;;;;;;;18.73;51.92;102331.25;5042930;28;20530;-74
2021/12/18 01:26:05;;;;;;;6.10;3.30;;;;;;;18.74;52.06;102330.94;5048005;28;20427;-74
2021/12/18 01:28:31;;;;;;;7.93;3.70;;;;;;;18.72;51.89;102335.31;5048808;28;20253;-74
2021/12/18 01:30:56;;;;;;;7.10;3.20;;;;;;;18.71;51.74;102331.59;5039961;28;20470;-73
2021/12/18 01:33:22;;;;;;;8.63;3.40;;;;;;;18.69;52.15;102333.94;5034573;28;20515;-73
2021/12/18 01:35:48;;;;;;;6.47;3.00;;;;;;;18.68;51.90;102338.00;5010490;28;20188;-73
2021/12/18 01:38:13;;;;;;;8.00;3.50;;;;;;;18.68;51.90;102337.13;5007236;28;20673;-73
2021/12/18 01:40:39;;;;;;;7.13;3.53;;;;;;;18.67;51.85;102336.28;5048166;28;20440;-74
2021/12/18 01:46:45;;;;;;;5.43;2.87;;;;;;;18.69;51.73;102345.41;5042327;28;20179;-73
2021/12/18 01:53:49;;;;;;;6.50;2.97;;;;;;;18.66;51.73;102334.59;5031204;28;20806;-73
2021/12/18 01:56:14;;;;;;;8.73;3.37;;;;;;;18.67;51.46;102336.28;5047223;28;20224;-73
2021/12/18 01:58:40;;;;;;;5.60;3.30;;;;;;;18.67;52.02;102332.59;5029331;28;20675;-73
2021/12/18 02:01:06;;;;;;;8.43;2.90;;;;;;;18.65;52.03;102327.19;5023369;28;20175;-73
2021/12/18 02:03:31;;;;;;;5.87;2.93;;;;;;;18.67;51.71;102330.56;5049238;28;20623;-74
2021/12/18 02:05:57;;;;;;;6.50;3.27;;;;;;;18.67;51.67;102329.72;5047768;28;20468;-73
2021/12/18 02:08:24;;;;;;;6.70;3.03;;;;;;;18.64;52.21;102327.53;5034288;28;20199;-75
2021/12/18 02:21:46;;;;;;;5.10;2.67;;;;;;;18.63;51.81;102315.25;5048128;28;20475;-75
2021/12/18 02:24:12;;;;;;;4.70;2.67;;;;;;;18.65;51.91;102320.63;5034496;28;20469;-73
2021/12/18 02:26:37;;;;;;;6.30;3.03;;;;;;;18.64;51.82;102311.22;5051763;28;20191;-72
2021/12/18 02:29:05;;;;;;;6.33;2.83;;;;;;;18.64;52.15;102308.34;5050257;28;20184;-73
2021/12/18 02:31:30;;;;;;;5.40;3.00;;;;;;;18.62;51.87;102313.56;5030605;28;20192;-74
2021/12/18 02:33:56;;;;;;;4.90;2.80;;;;;;;18.64;51.91;102313.22;5014785;28;20520;-73
2021/12/18 02:36:24;;;;;;;5.30;2.70;;;;;;;18.62;52.22;102318.44;5015396;28;20161;-73
2021/12/18 02:41:30;;;;;;;4.30;2.27;;;;;;;18.62;51.98;102316.41;5047178;28;20434;-73
2021/12/18 02:44:00;;;;;;;6.57;3.27;;;;;;;18.60;52.04;102301.59;5031573;28;20502;-74
2021/12/18 02:46:26;;;;;;;5.97;3.07;;;;;;;18.63;52.04;102309.53;5030122;28;20438;-73
2021/12/18 02:48:54;;;;;;;4.57;2.73;;;;;;;18.62;51.75;102307.81;5031122;28;20399;-74
2021/12/18 02:51:20;;;;;;;4.07;2.47;;;;;;;18.66;51.84;102308.03;5026676;28;20186;-73
2021/12/18 02:53:47;;;;;;;5.90;2.87;;;;;;;18.65;52.03;102312.91;5050999;28;20410;-73
2021/12/18 02:56:14;;;;;;;4.70;3.10;;;;;;;18.63;51.54;102309.53;5050703;28;20175;-76
2021/12/18 02:58:44;;;;;;;5.00;2.90;;;;;;;18.64;51.93;102307.50;5033161;28;21013;-73
2021/12/18 03:01:12;;;;;;;7.90;3.10;;;;;;;18.64;51.82;102313.22;5030812;28;20517;-73
2021/12/18 03:03:40;;;;;;;4.97;2.83;;;;;;;18.61;51.60;102309.00;4998199;28;20999;-73
2021/12/18 03:08:55;;;;;;;5.50;2.47;;;;;;;18.60;52.10;102317.91;5024902;28;20438;-73
2021/12/18 03:25:10;;;;;;;5.43;2.50;;;;;;;18.54;51.86;102297.22;5048552;28;20442;-73
2021/12/18 03:27:30;;;;;;;5.77;2.77;;;;;;;18.61;51.75;102299.59;5037358;28;20984;-73
2021/12/18 03:29:56;;;;;;;6.63;3.50;;;;;;;18.56;51.90;102291.19;5046811;28;20455;-73
2021/12/18 03:32:22;;;;;;;4.50;3.00;;;;;;;18.57;51.81;102292.84;5047575;28;20200;-73
2021/12/18 03:34:48;;;;;;;4.10;2.03;;;;;;;18.55;52.44;102295.19;5049577;28;20219;-74
2021/12/18 03:37:13;;;;;;;5.20;3.00;;;;;;;18.56;52.03;102299.75;5033127;28;20417;-73
2021/12/18 03:39:39;;;;;;;5.77;3.00;;;;;;;18.56;51.90;102297.72;5051164;28;20530;-75
2021/12/18 03:42:05;;;;;;;5.57;2.70;;;;;;;18.52;51.87;102295.88;5050744;28;20270;-74
2021/12/18 03:44:31;;;;;;;3.70;2.40;;;;;;;18.58;51.92;102301.13;5023605;28;20195;-73
2021/12/18 03:46:57;;;;;;;4.50;2.50;;;;;;;18.54;51.82;102302.94;5033367;28;21042;-74
2021/12/18 03:49:22;;;;;;;4.53;2.60;;;;;;;18.52;51.96;102296.69;5049975;28;20172;-73
2021/12/18 03:51:48;;;;;;;6.77;3.13;;;;;;;18.54;52.01;102305.81;5051301;28;20168;-74
2021/12/18 03:54:13;;;;;;;7.30;2.97;;;;;;;18.55;51.91;102307.47;5048516;28;20191;-74
2021/12/18 03:56:38;;;;;;;4.80;2.87;;;;;;;18.54;51.71;102304.94;5032040;28;20171;-74
2021/12/18 03:59:04;;;;;;;4.13;2.33;;;;;;;18.50;52.27;102303.94;5027341;28;20172;-73
2021/12/18 04:01:29;;;;;;;5.50;2.87;;;;;;;18.53;52.12;102309.00;5040887;28;20622;-73
2021/12/18 04:03:55;;;;;;;5.20;2.93;;;;;;;18.57;51.60;102304.31;5032816;28;20204;-73
2021/12/18 04:06:20;;;;;;;5.00;2.53;;;;;;;18.51;51.94;102303.59;5044275;28;20881;-73
2021/12/18 04:08:46;;;;;;;5.07;2.40;;;;;;;18.56;51.81;102306.31;5029348;28;20172;-73
2021/12/18 04:11:11;;;;;;;4.80;3.10;;;;;;;18.53;52.03;102301.28;5035061;28;20190;-73
2021/12/18 04:13:37;;;;;;;4.63;2.53;;;;;;;18.55;51.86;102300.91;5031898;28;20171;-73
2021/12/18 04:16:02;;;;;;;4.70;2.57;;;;;;;18.59;51.97;102305.66;5032953;28;20179;-74
2021/12/18 04:18:28;;;;;;;5.87;2.50;;;;;;;18.56;51.96;102303.44;5045689;28;20578;-74
2021/12/18 04:20:53;;;;;;;3.83;2.37;;;;;;;18.59;51.71;102305.66;5048764;28;20510;-73
2021/12/18 04:23:19;;;;;;;4.60;2.70;;;;;;;18.59;51.72;102305.66;5045318;28;20262;-74
2021/12/18 04:25:44;;;;;;;5.13;2.40;;;;;;;18.58;52.01;102309.69;5048406;28;20188;-73
2021/12/18 04:28:10;;;;;;;5.80;2.50;;;;;;;18.56;51.81;102312.03;5030473;28;20187;-74
2021/12/18 04:30:35;;;;;;;4.90;2.70;;;;;;;18.54;51.67;102302.09;5033573;28;20179;-73
2021/12/18 04:33:01;;;;;;;5.10;2.10;;;;;;;18.58;51.71;102309.69;5029689;28;20271;-73
2021/12/18 04:35:27;;;;;;;3.97;2.40;;;;;;;18.57;51.91;102319.44;5032082;28;20183;-73
2021/12/18 04:37:53;;;;;;;4.57;2.63;;;;;;;18.55;51.92;102315.22;5048334;28;20187;-74
2021/12/18 04:40:19;;;;;;;4.37;2.53;;;;;;;18.56;51.65;102312.03;5049658;28;20410;-73
2021/12/18 04:42:44;;;;;;;5.60;2.50;;;;;;;18.56;51.90;102317.75;5046530;28;20728;-73
2021/12/18 04:45:09;;;;;;;4.73;2.43;;;;;;;18.57;51.80;102318.59;5028549;28;20176;-73
2021/12/18 04:47:35;;;;;;;4.43;2.70;;;;;;;18.54;51.93;102314.38;5031156;28;20186;-74
2021/12/18 04:50:00;;;;;;;4.37;2.60;;;;;;;18.62;51.85;102310.69;5021619;28;20176;-74
2021/12/18 04:52:26;;;;;;;4.70;2.80;;;;;;;18.59;51.42;102314.22;5028353;28;20176;-74
2021/12/18 04:54:51;;;;;;;5.87;2.80;;;;;;;18.55;51.99;102310.34;5035898;28;20164;-73
2021/12/18 04:57:17;;;;;;;4.70;2.60;;;;;;;18.61;51.65;102311.03;5038987;28;20179;-74
2021/12/18 04:59:44;;;;;;;7.80;2.93;;;;;;;18.60;51.80;102313.06;5048661;28;20188;-74
2021/12/18 05:02:15;;;;;;;4.23;2.57;;;;;;;18.55;52.08;102307.47;5061267;28;20214;-74
2021/12/18 05:04:41;;;;;;;4.40;2.33;;;;;;;18.60;51.57;102312.19;5032817;28;20450;-74
2021/12/18 05:07:10;;;;;;;5.33;3.00;;;;;;;18.53;51.99;102307.00;5047149;28;20419;-73
2021/12/18 05:09:35;;;;;;;3.90;2.80;;;;;;;18.54;51.72;102308.66;5048143;28;20242;-73
2021/12/18 05:12:00;;;;;;;3.97;2.70;;;;;;;18.56;51.88;102314.88;5048302;28;20418;-73
2021/12/18 05:14:26;;;;;;;4.07;2.50;;;;;;;18.53;51.78;102314.72;5015297;28;20277;-73
2021/12/18 05:16:51;;;;;;;4.00;2.20;;;;;;;18.51;52.15;102317.91;5046307;28;20196;-74
2021/12/18 05:19:17;;;;;;;3.57;2.37;;;;;;;18.59;51.67;102327.69;5025555;28;20536;-74
2021/12/18 05:21:42;;;;;;;4.70;2.77;;;;;;;18.59;51.54;102319.09;5031538;28;20176;-74
2021/12/18 05:24:08;;;;;;;5.83;2.67;;;;;;;18.54;51.70;102320.09;5044433;28;20536;-74
2021/12/18 05:26:33;;;;;;;3.80;2.03;;;;;;;18.60;51.66;102320.78;5014350;28;20180;-73
2021/12/18 05:28:59;;;;;;;5.33;2.27;;;;;;;18.60;51.51;102310.19;5046781;28;20202;-74
2021/12/18 05:31:24;;;;;;;3.80;2.30;;;;;;;18.56;51.65;102320.59;5040866;28;20886;-73
2021/12/18 05:33:54;;;;;;;4.07;2.60;;;;;;;18.54;51.87;102319.25;5027979;28;20831;-73
2021/12/18 05:39:07;;;;;;;3.70;2.20;;;;;;;18.56;51.77;102316.94;5046933;28;20434;-73
2021/12/18 05:41:33;;;;;;;5.17;2.27;;;;;;;18.51;51.66;102311.34;5055594;28;20501;-73
2021/12/18 05:43:58;;;;;;;4.10;3.00;;;;;;;18.56;51.49;102312.03;5031015;28;20462;-74
2021/12/18 05:46:24;;;;;;;4.60;2.50;;;;;;;18.54;51.68;102302.94;5028260;28;20188;-73
2021/12/18 05:48:49;;;;;;;3.70;2.27;;;;;;;18.53;51.67;102307.00;5029337;28;20175;-73
2021/12/18 05:51:15;;;;;;;4.17;2.37;;;;;;;18.56;51.46;102305.47;5047129;28;20167;-73
2021/12/18 05:53:40;;;;;;;4.17;2.40;;;;;;;18.59;51.68;102314.22;5045598;28;20183;-74
2021/12/18 05:56:06;;;;;;;4.40;2.67;;;;;;;18.58;51.79;102309.69;5031810;28;20184;-73
2021/12/18 05:58:31;;;;;;;4.60;2.37;;;;;;;18.60;51.36;102310.19;4995811;28;20559;-75
2021/12/18 06:00:56;;;;;;;4.37;2.50;;;;;;;18.58;51.69;102317.41;5044665;28;20203;-73
2021/12/18 06:03:23;;;;;;;4.77;2.70;;;;;;;18.58;52.08;102321.13;5025034;28;20223;-73
2021/12/18 06:05:49;;;;;;;7.30;3.00;;;;;;;18.58;51.61;102312.56;5047135;28;20938;-74
2021/12/18 06:08:14;;;;;;;5.13;2.50;;;;;;;18.64;51.54;102313.22;5026856;28;20198;-73
2021/12/18 06:10:40;;;;;;;4.27;2.30;;;;;;;18.59;51.47;102324.81;5047297;28;20190;-73
2021/12/18 06:13:05;;;;;;;4.13;2.50;;;;;;;18.60;51.58;102324.50;5030920;28;20192;-73
2021/12/18 06:15:31;;;;;;;3.70;2.60;;;;;;;18.59;51.54;102327.69;5014838;28;20184;-73
2021/12/18 06:17:57;;;;;;;4.30;2.50;;;;;;;18.62;51.26;102333.56;5030466;28;20180;-73
2021/12/18 06:20:23;;;;;;;3.70;2.10;;;;;;;18.58;51.61;102324.00;5048382;28;20218;-74
2021/12/18 06:22:49;;;;;;;2.90;1.97;;;;;;;18.58;51.37;102324.00;5021903;28;20466;-74
2021/12/18 06:25:14;;;;;;;3.47;2.20;;;;;;;18.57;51.64;102335.75;5048067;28;20864;-73
2021/12/18 06:27:40;;;;;;;4.80;3.13;;;;;;;18.57;51.53;102336.59;5027546;28;20180;-73
2021/12/18 06:30:06;;;;;;;3.80;2.57;;;;;;;18.61;51.49;102331.06;5043808;28;20188;-73
2021/12/18 06:32:31;;;;;;;4.10;2.17;;;;;;;18.61;51.46;102331.06;5027646;28;20701;-72
2021/12/18 06:34:57;;;;;;;4.60;2.20;;;;;;;18.56;51.33;102320.59;5041306;28;20476;-75
2021/12/18 06:37:22;;;;;;;3.60;2.23;;;;;;;18.57;51.70;102332.91;5045679;28;20187;-73
2021/12/18 06:39:48;;;;;;;3.40;2.13;;;;;;;18.52;51.51;102333.06;5026811;28;20196;-73
2021/12/18 06:42:13;;;;;;;4.60;2.63;;;;;;;18.57;51.50;102324.31;5047643;28;20184;-72
2021/12/18 06:44:38;;;;;;;4.57;2.60;;;;;;;18.61;51.55;102328.22;5046274;28;20606;-73
2021/12/18 06:47:04;;;;;;;3.63;2.40;;;;;;;18.61;51.67;102336.78;5020626;28;20188;-73
2021/12/18 06:49:29;;;;;;;4.03;2.23;;;;;;;18.55;51.71;102324.66;5027756;28;20217;-74
2021/12/18 06:51:55;;;;;;;4.40;2.33;;;;;;;18.60;51.17;102317.91;5049647;28;20190;-73
2021/12/18 06:54:20;;;;;;;4.73;2.60;;;;;;;18.58;51.69;102331.72;5022014;28;20188;-74
2021/12/18 06:56:46;;;;;;;4.83;2.53;;;;;;;18.59;51.32;102333.41;5050508;28;20183;-73
2021/12/18 06:59:11;;;;;;;4.00;2.27;;;;;;;18.57;51.36;102328.00;5049999;28;20245;-73
2021/12/18 07:01:37;;;;;;;2.93;1.83;;;;;;;18.53;51.67;102332.72;5043064;28;20192;-73
2021/12/18 07:04:02;;;;;;;3.00;2.07;;;;;;;18.64;51.27;102330.38;5050835;28;20204;-73
2021/12/18 07:06:28;;;;;;;3.27;2.27;;;;;;;18.60;51.45;102332.22;5046700;28;20277;-73
2021/12/18 07:08:54;;;;;;;3.20;1.90;;;;;;;18.60;51.39;102335.09;5050002;28;20653;-73
2021/12/18 07:11:19;;;;;;;3.13;1.90;;;;;;;18.59;51.58;102339.97;5032487;28;20537;-73
2021/12/18 07:13:45;;;;;;;5.17;2.53;;;;;;;18.55;51.74;102344.66;5043344;28;20248;-73
2021/12/18 07:16:10;;;;;;;4.07;2.63;;;;;;;18.59;51.24;102341.97;5051130;28;20219;-73
2021/12/18 07:18:36;;;;;;;4.00;2.10;;;;;;;18.56;51.61;102346.34;5024064;28;20363;-73
2021/12/18 07:21:01;;;;;;;4.17;2.20;;;;;;;18.53;51.56;102349.91;5017252;28;20855;-73
2021/12/18 07:23:28;;;;;;;3.73;1.87;;;;;;;18.56;51.17;102349.22;5032832;28;20273;-73
2021/12/18 07:25:53;;;;;;;4.00;2.00;;;;;;;18.57;51.45;102352.94;5050929;28;20172;-73
2021/12/18 07:28:18;;;;;;;3.53;2.40;;;;;;;18.54;51.22;102354.44;5032122;28;20434;-73
2021/12/18 07:30:44;;;;;;;3.27;2.10;;;;;;;18.56;51.61;102354.94;5033945;28;20553;-73
2021/12/18 07:33:11;;;;;;;3.27;2.20;;;;;;;18.60;51.28;102360.81;5027422;28;20184;-73
2021/12/18 07:35:37;;;;;;;3.50;2.20;;;;;;;18.64;50.92;102361.84;5030359;28;20180;-74
2021/12/18 07:38:03;;;;;;;3.30;2.20;;;;;;;18.62;51.34;102362.19;5049649;28;20429;-73
2021/12/18 07:40:29;;;;;;;3.33;2.20;;;;;;;18.61;51.09;102360.50;5021315;28;20529;-73
2021/12/18 07:42:54;;;;;;;3.20;1.93;;;;;;;18.63;50.98;102368.75;5030368;28;20254;-73
2021/12/18 07:45:19;;;;;;;4.63;1.93;;;;;;;18.59;51.22;102362.88;5031913;28;20179;-73
2021/12/18 07:47:45;;;;;;;3.20;2.07;;;;;;;18.64;51.34;102365.56;5015039;28;20215;-75
2021/12/18 07:50:17;;;;;;;2.67;1.70;;;;;;;18.60;51.29;102367.41;5035753;28;20192;-73
2021/12/18 07:52:43;;;;;;;3.23;2.10;;;;;;;18.63;51.38;102360.19;5001068;28;20655;-74
2021/12/18 07:55:08;;;;;;;2.80;2.10;;;;;;;18.61;51.21;102354.78;5035405;28;20527;-73
2021/12/18 07:57:35;;;;;;;2.77;1.50;;;;;;;18.63;51.05;102351.59;5030342;28;20169;-73
2021/12/18 08:00:00;;;;;;;3.30;2.30;;;;;;;18.62;51.04;102349.91;5029053;28;20187;-73
2021/12/18 08:02:26;;;;;;;3.57;2.23;;;;;;;18.57;51.43;102350.06;5030979;28;20505;-73
2021/12/18 08:04:51;;;;;;;3.30;2.37;;;;;;;18.63;51.29;102355.31;5030090;28;20232;-73
2021/12/18 08:07:17;;;;;;;3.37;2.07;;;;;;;18.60;51.33;102355.97;5030376;28;20196;-73
2021/12/18 08:09:42;;;;;;;3.70;2.40;;;;;;;18.61;51.35;102354.78;5032946;28;20168;-74
2021/12/18 08:12:08;;;;;;;3.10;1.70;;;;;;;18.62;51.17;102356.47;5043561;28;20184;-73
2021/12/18 08:14:34;;;;;;;5.53;1.97;;;;;;;18.62;51.26;102365.03;5046387;28;20179;-74
2021/12/18 08:16:59;;;;;;;3.73;2.17;;;;;;;18.59;51.30;102354.28;5012199;28;20229;-74
2021/12/18 08:19:26;;;;;;;4.83;2.20;;;;;;;18.57;51.13;102355.78;5029062;28;20181;-75
2021/12/18 08:21:51;;;;;;;3.37;2.23;;;;;;;18.66;50.69;102348.91;5030405;28;20244;-73
2021/12/18 08:24:17;;;;;;;3.63;2.30;;;;;;;18.60;51.00;102353.09;5047701;28;20531;-73
2021/12/18 08:26:42;;;;;;;6.50;2.20;;;;;;;18.61;51.33;102354.78;5032125;28;20180;-74
2021/12/18 08:29:07;;;;;;;3.50;1.97;;;;;;;18.57;51.30;102345.16;5044702;28;20585;-73
2021/12/18 08:31:33;;;;;;;4.93;2.30;;;;;;;18.61;51.28;102354.78;5032947;28;20195;-73
2021/12/18 08:33:58;;;;;;;4.00;2.20;;;;;;;18.63;51.15;102355.31;5027376;28;20189;-74
2021/12/18 08:36:24;;;;;;;3.67;1.93;;;;;;;18.64;51.17;102350.41;5022890;28;20191;-73
2021/12/18 08:38:49;;;;;;;3.70;2.33;;;;;;;18.64;50.92;102347.56;5063004;28;20633;-74
2021/12/18 08:41:16;;;;;;;3.10;1.90;;;;;;;18.65;51.05;102355.81;5038606;28;20176;-74
2021/12/18 08:43:42;;;;;;;3.00;2.00;;;;;;;18.59;51.09;102357.16;5028774;28;20204;-73
2021/12/18 08:46:07;;;;;;;3.87;2.23;;;;;;;18.60;51.02;102355.97;5012763;28;20836;-73
2021/12/18 08:48:33;;;;;;;3.80;2.27;;;;;;;18.62;51.25;102356.47;5007269;28;20204;-74
2021/12/18 08:50:58;;;;;;;4.10;2.23;;;;;;;18.63;51.76;102361.03;5031999;28;20270;-73
2021/12/18 08:53:24;;;;;;;3.63;1.77;;;;;;;18.64;50.89;102361.84;5014157;28;20187;-74
2021/12/18 08:55:49;;;;;;;2.60;1.80;;;;;;;18.61;51.18;102366.22;5015665;28;20183;-73
2021/12/18 08:58:15;;;;;;;3.23;1.80;;;;;;;18.61;51.64;102351.91;5047027;28;20184;-75
2021/12/18 09:00:40;;;;;;;3.37;2.23;;;;;;;18.64;51.06;102351.28;5022570;28;20203;-73
2021/12/18 09:03:06;;;;;;;6.63;2.07;;;;;;;18.61;51.04;102342.50;5048082;28;20208;-74
2021/12/18 09:05:31;;;;;;;3.60;2.10;;;;;;;18.62;50.90;102342.16;5029554;28;20643;-74
2021/12/18 09:07:57;;;;;;;3.00;2.00;;;;;;;18.66;50.83;102340.31;5015672;28;20190;-75
2021/12/18 09:10:23;;;;;;;3.40;2.10;;;;;;;18.63;50.96;102343.88;5048103;28;20205;-74
2021/12/18 09:12:49;;;;;;;3.57;2.10;;;;;;;18.61;50.93;102348.25;5021713;28;20184;-73
2021/12/18 09:15:14;;;;;;;2.83;1.80;;;;;;;18.64;51.08;102344.69;5030814;28;20422;-74
2021/12/18 09:17:40;;;;;;;2.93;2.03;;;;;;;18.65;51.28;102337.78;5046590;28;20188;-74
2021/12/18 09:20:06;;;;;;;4.00;2.27;;;;;;;18.67;51.10;102352.63;5031872;28;20207;-74
2021/12/18 09:22:32;;;;;;;4.10;2.23;;;;;;;18.66;51.24;102350.94;5048390;28;20592;-73
2021/12/18 09:24:57;;;;;;;2.80;1.93;;;;;;;18.66;51.21;102350.94;5021790;28;20533;-75
2021/12/18 09:27:22;;;;;;;2.80;1.80;;;;;;;18.60;51.25;102347.38;5031404;28;20211;-74
2021/12/18 09:29:48;;;;;;;2.40;1.50;;;;;;;18.70;50.63;102351.94;5045208;28;20192;-73
2021/12/18 09:32:13;;;;;;;2.93;1.80;;;;;;;18.67;51.29;102347.72;5025234;28;20187;-73
2021/12/18 09:34:39;;;;;;;2.97;1.93;;;;;;;18.67;50.93;102341.19;5030863;28;20175;-74
2021/12/18 09:37:04;;;;;;;4.03;2.30;;;;;;;18.65;50.97;102341.50;5020392;28;20183;-75
2021/12/18 09:39:30;;;;;;;2.80;1.70;;;;;;;18.64;51.08;102336.09;5049166;28;20175;-75
2021/12/18 09:41:56;;;;;;;3.40;2.13;;;;;;;18.66;51.10;102346.03;5048698;28;20175;-74
2021/12/18 09:44:28;;;;;;;3.00;1.80;;;;;;;18.65;51.25;102343.50;5047757;28;20654;-74
2021/12/18 09:46:54;;;;;;;4.30;1.90;;;;;;;18.68;51.22;102334.28;5047521;28;20441;-74
2021/12/18 09:49:19;;;;;;;3.20;1.97;;;;;;;18.63;51.45;102323.84;5048179;28;20415;-74
2021/12/18 09:51:45;;;;;;;3.03;1.83;;;;;;;18.65;51.24;102320.63;5045846;28;20188;-73
2021/12/18 09:54:10;;;;;;;4.37;2.33;;;;;;;18.62;51.27;102315.59;5047885;28;20171;-73
2021/12/18 09:56:36;;;;;;;3.00;1.97;;;;;;;18.64;51.11;102318.94;5031112;28;20212;-74
2021/12/18 09:59:02;;;;;;;4.17;2.07;;;;;;;18.64;50.67;102319.81;5031525;28;20582;-73
2021/12/18 10:01:27;;;;;;;2.53;1.50;;;;;;;18.67;50.90;102313.38;5027878;28;20187;-75
2021/12/18 10:03:55;;;;;;;3.47;1.83;;;;;;;18.66;51.19;102311.72;5047989;28;20226;-73
2021/12/18 10:06:35;;;;;;;3.00;1.80;;;;;;;18.66;51.24;102299.44;5040259;28;20274;-74
2021/12/18 10:09:02;;;;;;;3.33;1.83;;;;;;;18.70;51.20;102295.56;5048065;28;20422;-74
2021/12/18 10:11:27;;;;;;;4.10;1.90;;;;;;;18.73;51.13;102288.34;5047504;28;20523;-73
2021/12/18 10:14:02;;;;;;;3.90;1.83;;;;;;;18.68;51.10;102297.94;5031441;28;20787;-73
2021/12/18 10:16:28;;;;;;;2.40;1.57;;;;;;;18.73;50.94;102294.91;5033705;28;20665;-74
2021/12/18 10:18:55;;;;;;;3.03;1.90;;;;;;;18.69;51.26;102288.16;5029425;28;20431;-74
2021/12/18 10:21:22;;;;;;;2.90;1.60;;;;;;;18.69;50.88;102285.31;5043806;28;20188;-74
2021/12/18 10:23:48;;;;;;;3.87;1.83;;;;;;;18.70;51.25;102281.25;5010533;28;20467;-73
2021/12/18 10:26:39;;;;;;;2.50;1.67;;;;;;;18.71;51.30;102279.25;5013040;28;20422;-74
2021/12/18 10:29:06;;;;;;;4.00;2.00;;;;;;;18.68;51.34;102280.78;5032031;28;20414;-74
2021/12/18 10:31:45;;;;;;;4.17;1.60;;;;;;;18.66;51.46;102268.81;5023006;28;20438;-74
2021/12/18 10:34:14;;;;;;;4.07;1.90;;;;;;;18.71;50.99;102273.53;5035148;28;20420;-73
2021/12/18 10:36:40;;;;;;;3.00;1.90;;;;;;;18.68;51.49;102277.06;5050590;28;20473;-73
2021/12/18 10:39:05;;;;;;;5.30;1.83;;;;;;;18.63;50.65;102271.50;5022124;28;20434;-73
2021/12/18 10:41:34;;;;;;;5.03;1.80;;;;;;;18.69;51.01;102270.16;5050838;28;20183;-74
2021/12/18 10:44:02;;;;;;;2.33;1.63;;;;;;;18.66;51.30;102268.81;5051966;28;20199;-73
2021/12/18 10:46:28;;;;;;;3.93;2.10;;;;;;;18.64;51.28;102267.44;5042130;28;20558;-73
2021/12/18 10:49:00;;;;;;;4.07;1.97;;;;;;;18.67;51.05;102255.34;5018648;28;20438;-74
2021/12/18 10:51:27;;;;;;;3.13;1.97;;;;;;;18.67;51.00;102267.63;5037316;28;20202;-74
2021/12/18 10:53:58;;;;;;;2.70;1.40;;;;;;;18.66;51.05;102265.13;5050970;28;20410;-74
2021/12/18 10:56:32;;;;;;;2.93;1.40;;;;;;;18.64;51.21;102265.44;5030886;28;20407;-75
2021/12/18 10:58:57;;;;;;;3.10;1.87;;;;;;;18.62;51.48;102264.91;5016605;28;20438;-74
2021/12/18 11:01:23;;;;;;;3.23;1.77;;;;;;;18.69;51.07;102250.97;5040908;28;20438;-74
2021/12/18 11:03:49;;;;;;;3.60;1.97;;;;;;;18.66;51.61;102254.50;5033603;28;20196;-74
2021/12/18 11:06:20;;;;;;;3.57;1.93;;;;;;;18.65;51.86;102258.53;5030368;28;20238;-74
2021/12/18 11:09:04;;;;;;;2.30;1.40;;;;;;;18.62;51.74;102256.34;5016874;28;20430;-73
2021/12/18 11:14:14;;;;;;;2.80;1.80;;;;;;;18.66;51.29;102245.09;5052488;28;20446;-74
2021/12/18 11:16:41;;;;;;;6.23;2.27;;;;;;;18.69;51.26;102242.41;5032139;28;20537;-75
2021/12/18 11:19:11;;;;;;;3.97;1.80;;;;;;;18.67;51.17;102241.88;5016750;28;20426;-73
2021/12/18 11:21:37;;;;;;;2.63;1.73;;;;;;;18.71;51.16;102231.44;5030420;28;20971;-73
2021/12/18 11:24:06;;;;;;;2.50;1.60;;;;;;;18.67;51.23;102221.84;5031315;28;20447;-73
2021/12/18 11:27:00;;;;;;;2.47;1.80;;;;;;;18.69;51.27;102228.09;5013744;28;20260;-73
2021/12/18 11:29:40;;;;;;;3.03;1.77;;;;;;;18.64;51.55;102224.53;5021004;28;20435;-75
2021/12/18 11:32:08;;;;;;;2.53;1.53;;;;;;;18.67;51.32;102223.88;5049560;28;20486;-73
2021/12/18 11:34:34;;;;;;;3.27;1.97;;;;;;;18.64;51.68;102215.97;5034382;28;20430;-73
2021/12/18 11:37:00;;;;;;;2.30;1.60;;;;;;;18.70;50.82;102226.06;5032351;28;20426;-74
2021/12/18 11:39:28;;;;;;;2.77;1.70;;;;;;;18.69;51.00;102218.66;5046204;28;21052;-73
2021/12/18 11:41:54;;;;;;;4.20;1.77;;;;;;;18.68;51.13;102209.25;5028437;28;20618;-75
2021/12/18 11:44:27;;;;;;;3.10;1.70;;;;;;;18.70;51.10;102208.88;5047900;28;20504;-73
2021/12/18 11:46:53;;;;;;;3.00;1.50;;;;;;;18.68;51.14;102211.25;5048276;28;20283;-74
2021/12/18 11:49:19;;;;;;;2.80;1.57;;;;;;;18.71;50.98;102213.47;5049064;28;20505;-74
2021/12/18 11:52:02;;;;;;;2.47;1.73;;;;;;;18.67;51.13;102207.53;5023333;28;20265;-74
2021/12/18 11:54:45;;;;;;;2.53;1.67;;;;;;;18.71;50.94;102202.84;5049393;28;21163;-76
2021/12/18 11:57:12;;;;;;;4.67;2.03;;;;;;;18.68;50.86;102206.38;5044320;28;20439;-74
2021/12/18 11:59:41;;;;;;;2.67;1.63;;;;;;;18.67;50.99;102209.56;5029570;28;20532;-74
2021/12/18 12:02:08;;;;;;;2.37;1.50;;;;;;;18.64;51.57;102207.38;5033729;28;20432;-74
2021/12/18 12:04:57;;;;;;;6.63;2.07;;;;;;;18.66;51.40;102197.28;5066735;28;20508;-73
2021/12/18 12:07:23;;;;;;;3.17;2.10;;;;;;;18.64;51.44;102202.50;5043891;28;20453;-75
2021/12/18 12:12:58;;;;;;;2.60;1.67;;;;;;;18.71;50.82;102193.44;5049923;28;20405;-74
2021/12/18 12:15:25;;;;;;;3.50;2.20;;;;;;;18.65;51.40;102192.75;5045987;28;20443;-74
2021/12/18 12:17:56;;;;;;;2.87;1.67;;;;;;;18.62;51.65;102186.84;5027954;28;20548;-74
2021/12/18 12:20:42;;;;;;;3.93;2.30;;;;;;;18.66;51.32;102182.16;5065902;28;20855;-74
2021/12/18 12:23:09;;;;;;;3.30;1.80;;;;;;;18.66;51.01;102187.88;5033424;28;20458;-74